Dades meteomassalio
Diari Summary for Abril 26, 2017 Units:  Metric    English   Both
« Previous Day
Next Day »
Diari Semanal Mensual Anual Personalitzat
  Maxima: Minima: Mijana:
Temperatura: 15.6 °C 9.4 °C 12.2 °C
Rosada: 14.1 °C 0.3 °C 7 °C
Humitat: 91 % 53 % 71 %
Velocitat del vent: 32.2 km/h 0.0 km/h 18.3 km/h
Racha vent: 32.2 km/h - -
Vent:- - WNW
Pressio: 1014.1 hPa 1006.7 hPa -
Pluja: 0.3 mm    
Historical Graphs
 
 
Tabular Data for Abril 26, 2017
Time Temperature Dew Point Pressure Wind Wind Speed Wind Gust Humidity Rainfall Rate (Hourly) solar Conditions
00:00 15.6 °C 14.1 °C 1006.7 hPa Calm     91 % 0.0 mm 0.0 W/m2 RA
00:05 15.3 °C 13.7 °C 1007.0 hPa WNW 24.1 km/h 24.1 km/h 90 % 0.0 mm 0.0 W/m2 CLR
00:10 14.6 °C 12.8 °C 1007.0 hPa NNW 32.2 km/h 32.2 km/h 89 % 0.0 mm 0.0 W/m2 CLR
00:15 14.0 °C 12.1 °C 1007.0 hPa WNW 25.9 km/h 25.9 km/h 88 % 0.0 mm 0.0 W/m2 CLR
00:20 13.7 °C 11.9 °C 1007.0 hPa NW 31.5 km/h 31.5 km/h 89 % 0.0 mm 0.0 W/m2 CLR
00:25 13.4 °C 11.7 °C 1007.3 hPa West 29.6 km/h 29.6 km/h 89 % 0.0 mm 0.0 W/m2 CLR
00:30 13.3 °C 11.5 °C 1007.3 hPa West 31.5 km/h 31.5 km/h 89 % 0.0 mm 0.0 W/m2 CLR
00:35 13.2 °C 11.4 °C 1007.3 hPa WNW 31.5 km/h 31.5 km/h 89 % 0.0 mm 0.0 W/m2 CLR
00:40 13.1 °C 11.2 °C 1007.3 hPa West 30.6 km/h 30.6 km/h 88 % 0.0 mm 0.0 W/m2 CLR
00:45 13.0 °C 10.9 °C 1007.7 hPa West 30.6 km/h 30.6 km/h 87 % 0.0 mm 0.0 W/m2 CLR
00:50 12.8 °C 10.7 °C 1007.3 hPa WNW 31.5 km/h 31.5 km/h 87 % 0.0 mm 0.0 W/m2 CLR
00:55 12.7 °C 10.6 °C 1007.3 hPa WNW 31.5 km/h 31.5 km/h 87 % 0.0 mm 0.0 W/m2 CLR
01:00 12.6 °C 10.5 °C 1007.3 hPa WNW 25.9 km/h 25.9 km/h 87 % 0.0 mm 0.0 W/m2 CLR
01:05 12.6 °C 10.3 °C 1007.3 hPa NW 27.8 km/h 27.8 km/h 86 % 0.0 mm 0.0 W/m2 CLR
01:10 12.6 °C 10.3 °C 1007.3 hPa WNW 29.0 km/h 29.0 km/h 86 % 0.0 mm 0.0 W/m2 CLR
01:15 12.6 °C 9.9 °C 1007.3 hPa West 31.5 km/h 31.5 km/h 84 % 0.0 mm 0.0 W/m2 CLR
01:20 12.6 °C 9.9 °C 1007.3 hPa WNW 22.2 km/h 22.2 km/h 84 % 0.0 mm 0.0 W/m2 CLR
01:25 12.5 °C 9.7 °C 1007.3 hPa West 20.9 km/h 20.9 km/h 83 % 0.0 mm 0.0 W/m2 CLR
01:30 12.6 °C 9.7 °C 1007.3 hPa West 20.4 km/h 20.4 km/h 83 % 0.0 mm 0.0 W/m2 CLR
01:35 12.5 °C 9.5 °C 1007.3 hPa WNW 24.1 km/h 24.1 km/h 82 % 0.0 mm 0.0 W/m2 CLR
01:40 12.5 °C 9.5 °C 1007.3 hPa WNW 24.1 km/h 24.1 km/h 82 % 0.0 mm 0.0 W/m2 CLR
01:45 12.4 °C 9.3 °C 1007.3 hPa WNW 17.7 km/h 17.7 km/h 81 % 0.0 mm 0.0 W/m2 CLR
01:50 12.4 °C 9.2 °C 1007.7 hPa West 24.1 km/h 24.1 km/h 81 % 0.0 mm 0.0 W/m2 CLR
01:55 12.4 °C 9.1 °C 1007.3 hPa West 25.9 km/h 25.9 km/h 80 % 0.0 mm 0.0 W/m2 CLR
02:00 12.4 °C 9.1 °C 1007.3 hPa West 24.1 km/h 24.1 km/h 80 % 0.0 mm 0.0 W/m2 CLR
02:05 12.5 °C 8.9 °C 1007.3 hPa West 25.9 km/h 25.9 km/h 79 % 0.0 mm 0.0 W/m2 CLR
02:10 12.5 °C 8.8 °C 1007.3 hPa West 27.8 km/h 27.8 km/h 78 % 0.0 mm 0.0 W/m2 CLR
02:15 12.5 °C 8.8 °C 1007.7 hPa West 18.5 km/h 18.5 km/h 78 % 0.0 mm 0.0 W/m2 CLR
02:20 12.5 °C 8.6 °C 1007.3 hPa West 9.3 km/h 9.3 km/h 77 % 0.0 mm 0.0 W/m2 CLR
02:25 12.5 °C 8.6 °C 1007.3 hPa WNW 3.7 km/h 3.7 km/h 77 % 0.0 mm 0.0 W/m2 CLR
02:26 12.5 °C 8.6 °C 1007.3 hPa West 5.6 km/h 5.6 km/h 77 % 0.0 mm 0.0 W/m2 CLR
02:31 12.4 °C 8.7 °C 1007.3 hPa Calm     78 % 0.0 mm 0.0 W/m2 CLR
02:36 12.4 °C 8.5 °C 1007.3 hPa WSW 1.9 km/h   77 % 0.0 mm 0.0 W/m2 CLR
02:41 12.4 °C 8.5 °C 1007.3 hPa West 9.3 km/h 9.3 km/h 77 % 0.0 mm 0.0 W/m2 CLR
02:46 12.5 °C 8.6 °C 1007.3 hPa WSW 7.4 km/h 7.4 km/h 77 % 0.0 mm 0.0 W/m2 CLR
02:51 12.4 °C 8.5 °C 1007.3 hPa West 5.6 km/h 5.6 km/h 77 % 0.0 mm 0.0 W/m2 CLR
02:56 12.4 °C 8.7 °C 1007.3 hPa Calm     78 % 0.0 mm 0.0 W/m2 CLR
03:01 12.4 °C 8.7 °C 1007.3 hPa Calm     78 % 0.0 mm 0.0 W/m2 CLR
03:06 12.4 °C 8.8 °C 1007.3 hPa Calm     79 % 0.0 mm 0.0 W/m2 CLR
03:11 12.3 °C 9.0 °C 1007.3 hPa Calm     80 % 0.0 mm 0.0 W/m2 CLR
03:16 12.3 °C 9.1 °C 1007.3 hPa Calm     81 % 0.0 mm 0.0 W/m2 CLR
03:21 12.2 °C 9.2 °C 1007.3 hPa Calm     82 % 0.0 mm 0.0 W/m2 CLR
03:26 12.1 °C 9.1 °C 1007.3 hPa Calm     82 % 0.0 mm 0.0 W/m2 CLR
03:31 12.1 °C 9.1 °C 1007.3 hPa Calm     82 % 0.0 mm 0.0 W/m2 CLR
03:36 12.1 °C 9.1 °C 1007.3 hPa WNW 9.3 km/h 9.3 km/h 82 % 0.0 mm 0.0 W/m2 CLR
03:41 12.0 °C 8.8 °C 1007.3 hPa NW 7.4 km/h 7.4 km/h 81 % 0.0 mm 0.0 W/m2 CLR
03:46 11.9 °C 8.7 °C 1007.3 hPa WNW 1.6 km/h   81 % 0.0 mm 0.0 W/m2 CLR
03:51 11.8 °C 8.5 °C 1007.3 hPa WNW 14.8 km/h 14.8 km/h 80 % 0.0 mm 0.0 W/m2 CLR
03:56 11.8 °C 8.5 °C 1007.3 hPa WNW 9.3 km/h 9.3 km/h 80 % 0.0 mm 0.0 W/m2 CLR
04:01 11.8 °C 8.4 °C 1007.3 hPa WNW 11.1 km/h 11.1 km/h 80 % 0.0 mm 0.0 W/m2 CLR
04:06 11.7 °C 8.2 °C 1007.3 hPa NW 14.8 km/h 14.8 km/h 79 % 0.0 mm 0.0 W/m2 CLR
04:11 11.7 °C 8.2 °C 1007.3 hPa WNW 17.7 km/h 17.7 km/h 79 % 0.0 mm 0.0 W/m2 CLR
04:16 11.6 °C 8.1 °C 1007.3 hPa WNW 16.1 km/h 16.1 km/h 79 % 0.0 mm 0.0 W/m2 CLR
04:21 11.6 °C 8.3 °C 1007.7 hPa WNW 6.4 km/h 6.4 km/h 80 % 0.0 mm 0.0 W/m2 CLR
04:26 11.6 °C 8.3 °C 1007.3 hPa WNW 6.4 km/h 6.4 km/h 80 % 0.0 mm 0.0 W/m2 CLR
04:31 11.6 °C 8.1 °C 1007.3 hPa NW 14.8 km/h 14.8 km/h 79 % 0.0 mm 0.0 W/m2 CLR
04:36 11.6 °C 8.3 °C 1007.3 hPa WNW 13.0 km/h 13.0 km/h 80 % 0.0 mm 0.0 W/m2 CLR
04:41 11.6 °C 8.3 °C 1007.3 hPa WNW 16.7 km/h 16.7 km/h 80 % 0.0 mm 0.0 W/m2 CLR
04:46 11.6 °C 8.3 °C 1007.3 hPa WNW 14.8 km/h 14.8 km/h 80 % 0.0 mm 0.0 W/m2 CLR
04:51 11.6 °C 8.4 °C 1007.3 hPa West 16.1 km/h 16.1 km/h 81 % 0.0 mm 0.0 W/m2 CLR
04:56 11.5 °C 8.3 °C 1007.3 hPa West 16.7 km/h 16.7 km/h 81 % 0.0 mm 0.0 W/m2 CLR
05:01 11.5 °C 8.6 °C 1007.3 hPa West 9.3 km/h 9.3 km/h 82 % 0.0 mm 0.0 W/m2 CLR
05:06 11.4 °C 8.4 °C 1007.3 hPa West 11.1 km/h 11.1 km/h 82 % 0.0 mm 0.0 W/m2 CLR
05:11 11.3 °C 8.4 °C 1007.3 hPa Calm     82 % 0.0 mm 0.0 W/m2 CLR
05:16 11.3 °C 8.3 °C 1007.3 hPa WNW 7.4 km/h 7.4 km/h 82 % 0.0 mm 0.0 W/m2 CLR
05:21 11.2 °C 8.4 °C 1007.3 hPa Calm     83 % 0.0 mm 0.0 W/m2 CLR
05:26 11.2 °C 8.4 °C 1007.3 hPa WNW 9.7 km/h 9.7 km/h 83 % 0.0 mm 0.0 W/m2 CLR
05:31 11.2 °C 8.3 °C 1007.3 hPa Calm     82 % 0.0 mm 0.0 W/m2 CLR
05:36 11.2 °C 8.4 °C 1007.3 hPa WNW 14.8 km/h 14.8 km/h 83 % 0.0 mm 0.0 W/m2 CLR
05:41 11.1 °C 8.3 °C 1007.3 hPa West 5.6 km/h 5.6 km/h 83 % 0.0 mm 0.0 W/m2 CLR
05:46 11.1 °C 8.3 °C 1007.3 hPa WNW 7.4 km/h 7.4 km/h 83 % 0.0 mm 0.0 W/m2 CLR
05:51 11.1 °C 8.3 °C 1007.3 hPa West 6.4 km/h 6.4 km/h 83 % 0.0 mm 0.0 W/m2 CLR
05:56 11.1 °C 8.3 °C 1007.3 hPa WNW 11.1 km/h 11.1 km/h 83 % 0.0 mm 0.0 W/m2 CLR
06:01 11.1 °C 8.3 °C 1007.3 hPa West 7.4 km/h 7.4 km/h 83 % 0.0 mm 0.0 W/m2 CLR
06:06 11.1 °C 8.3 °C 1007.3 hPa WNW 18.5 km/h 18.5 km/h 83 % 0.0 mm 0.0 W/m2 CLR
06:11 11.1 °C 8.3 °C 1007.3 hPa WNW 17.7 km/h 17.7 km/h 83 % 0.0 mm 0.0 W/m2 CLR
06:16 11.1 °C 8.3 °C 1007.3 hPa West 17.7 km/h 17.7 km/h 83 % 0.0 mm 0.0 W/m2 CLR
06:21 11.1 °C 8.3 °C 1007.3 hPa WSW 14.8 km/h 14.8 km/h 83 % 0.0 mm 0.0 W/m2 CLR
06:26 11.1 °C 8.3 °C 1007.3 hPa West 17.7 km/h 17.7 km/h 83 % 0.0 mm 0.0 W/m2 CLR
06:31 11.2 °C 8.4 °C 1007.3 hPa WNW 14.5 km/h 14.5 km/h 83 % 0.0 mm 0.0 W/m2 CLR
06:36 11.2 °C 8.4 °C 1007.3 hPa West 9.7 km/h 9.7 km/h 83 % 0.0 mm 0.0 W/m2 CLR
06:41 11.2 °C 8.2 °C 1007.3 hPa WNW 18.5 km/h 18.5 km/h 82 % 0.0 mm 0.0 W/m2 CLR
06:46 11.2 °C 8.3 °C 1007.3 hPa West 16.7 km/h 16.7 km/h 82 % 0.0 mm 0.0 W/m2 CLR
06:51 11.2 °C 8.3 °C 1007.3 hPa West 18.5 km/h 18.5 km/h 82 % 0.0 mm 0.0 W/m2 CLR
06:56 11.2 °C 8.3 °C 1007.3 hPa West 18.5 km/h 18.5 km/h 82 % 0.0 mm 0.0 W/m2 CLR
07:01 11.2 °C 8.3 °C 1007.3 hPa West 16.7 km/h 16.7 km/h 82 % 0.0 mm 0.0 W/m2 OVC
07:06 11.2 °C 8.3 °C 1007.3 hPa WNW 18.5 km/h 18.5 km/h 82 % 0.0 mm 0.0 W/m2 OVC
07:11 11.2 °C 8.3 °C 1007.3 hPa West 18.5 km/h 18.5 km/h 82 % 0.0 mm 0.0 W/m2 OVC
07:17 11.3 °C 8.1 °C 1007.3 hPa West 18.5 km/h 18.5 km/h 81 % 0.0 mm 0.0 W/m2 OVC
07:22 11.3 °C 8.1 °C 1007.7 hPa West 22.5 km/h 22.5 km/h 81 % 0.0 mm 0.0 W/m2 OVC
07:27 11.3 °C 8.1 °C 1007.7 hPa West 20.4 km/h 20.4 km/h 81 % 0.0 mm 5.0 W/m2 OVC
07:32 11.3 °C 8.1 °C 1007.7 hPa West 18.5 km/h 18.5 km/h 81 % 0.0 mm 7.0 W/m2 BKN
07:37 11.3 °C 8.2 °C 1007.7 hPa WNW 18.5 km/h 18.5 km/h 81 % 0.0 mm 12.0 W/m2 BKN
07:42 11.3 °C 8.1 °C 1007.7 hPa WSW 9.3 km/h 9.3 km/h 81 % 0.0 mm 21.0 W/m2 BKN
07:47 11.3 °C 8.1 °C 1008.0 hPa WSW 5.6 km/h 5.6 km/h 81 % 0.0 mm 19.0 W/m2 BKN
07:52 11.3 °C 8.1 °C 1008.0 hPa WNW 17.7 km/h 17.7 km/h 81 % 0.0 mm 18.0 W/m2 BKN
07:57 11.3 °C 8.1 °C 1008.0 hPa WSW 11.1 km/h 11.1 km/h 81 % 0.0 mm 16.0 W/m2 BKN
08:02 11.3 °C 8.1 °C 1008.0 hPa West 18.5 km/h 18.5 km/h 81 % 0.0 mm 23.0 W/m2 BKN
08:07 11.2 °C 8.1 °C 1008.4 hPa WSW 7.4 km/h 7.4 km/h 81 % 0.0 mm 32.0 W/m2 BKN
08:12 11.2 °C 8.1 °C 1008.4 hPa WSW 9.3 km/h 9.3 km/h 81 % 0.0 mm 35.0 W/m2 BKN
08:17 11.3 °C 8.1 °C 1008.4 hPa WSW 14.8 km/h 14.8 km/h 81 % 0.0 mm 42.0 W/m2 BKN
08:22 11.3 °C 8.1 °C 1008.4 hPa West 13.0 km/h 13.0 km/h 81 % 0.0 mm 39.0 W/m2 BKN
08:27 11.3 °C 8.1 °C 1008.4 hPa West 16.7 km/h 16.7 km/h 81 % 0.0 mm 49.0 W/m2 BKN
08:32 11.3 °C 8.1 °C 1008.4 hPa WNW 22.2 km/h 22.2 km/h 81 % 0.0 mm 49.0 W/m2 BKN
08:37 11.3 °C 8.2 °C 1008.4 hPa West 16.7 km/h 16.7 km/h 81 % 0.0 mm 65.0 W/m2 SCT
08:42 11.4 °C 8.2 °C 1008.4 hPa NW 16.1 km/h 16.1 km/h 81 % 0.0 mm 69.0 W/m2 SCT
08:47 11.4 °C 8.2 °C 1008.7 hPa WNW 29.6 km/h 29.6 km/h 81 % 0.0 mm 58.0 W/m2 FEW
08:52 11.4 °C 8.2 °C 1008.7 hPa NW 27.8 km/h 27.8 km/h 81 % 0.0 mm 62.0 W/m2 SCT
08:57 11.4 °C 8.3 °C 1008.7 hPa West 18.5 km/h 18.5 km/h 81 % 0.0 mm 67.0 W/m2 SCT
09:02 11.5 °C 8.3 °C 1008.7 hPa NW 18.5 km/h 18.5 km/h 81 % 0.0 mm 77.0 W/m2 FEW
09:07 11.6 °C 8.4 °C 1008.7 hPa WNW 18.5 km/h 18.5 km/h 81 % 0.0 mm 107.0 W/m2 FEW
09:12 11.6 °C 8.4 °C 1008.7 hPa West 18.5 km/h 18.5 km/h 81 % 0.0 mm 109.0 W/m2 CLR
09:17 11.6 °C 8.4 °C 1008.7 hPa West 24.1 km/h 24.1 km/h 81 % 0.0 mm 132.0 W/m2 CLR
09:22 11.7 °C 8.6 °C 1008.7 hPa West 18.5 km/h 18.5 km/h 81 % 0.0 mm 128.0 W/m2 CLR
09:27 11.8 °C 8.4 °C 1008.7 hPa West 22.2 km/h 22.2 km/h 80 % 0.0 mm 148.0 W/m2 CLR
09:32 11.8 °C 8.3 °C 1008.7 hPa West 29.6 km/h 29.6 km/h 79 % 0.0 mm 169.0 W/m2 CLR
09:37 11.8 °C 8.1 °C 1008.7 hPa WNW 29.6 km/h 29.6 km/h 78 % 0.0 mm 188.0 W/m2 CLR
09:42 11.9 °C 8.4 °C 1009.0 hPa NNW 18.5 km/h 18.5 km/h 79 % 0.0 mm 207.0 W/m2 CLR
09:47 12.1 °C 8.5 °C 1008.7 hPa WNW 18.5 km/h 18.5 km/h 79 % 0.0 mm 214.0 W/m2 CLR
09:52 12.1 °C 8.4 °C 1008.7 hPa WNW 18.5 km/h 18.5 km/h 78 % 0.0 mm 223.0 W/m2 CLR
09:57 12.2 °C 8.4 °C 1009.0 hPa NW 18.5 km/h 18.5 km/h 78 % 0.0 mm 207.0 W/m2 CLR
10:02 12.2 °C 8.3 °C 1008.7 hPa WNW 18.5 km/h 18.5 km/h 77 % 0.0 mm 193.0 W/m2 CLR
10:07 12.2 °C 8.5 °C 1008.7 hPa West 16.7 km/h 16.7 km/h 78 % 0.0 mm 197.0 W/m2 CLR
10:12 12.3 °C 8.3 °C 1009.0 hPa West 20.9 km/h 20.9 km/h 77 % 0.0 mm 204.0 W/m2 CLR
10:17 12.3 °C 8.3 °C 1009.0 hPa West 14.8 km/h 14.8 km/h 77 % 0.0 mm 183.0 W/m2 CLR
10:22 12.3 °C 8.4 °C 1009.0 hPa NW 18.5 km/h 18.5 km/h 77 % 0.0 mm 204.0 W/m2 CLR
10:27 12.3 °C 8.6 °C 1009.0 hPa WNW 16.7 km/h 16.7 km/h 78 % 0.0 mm 255.0 W/m2 CLR
10:32 12.3 °C 8.2 °C 1009.0 hPa WNW 25.9 km/h 25.9 km/h 76 % 0.0 mm 279.0 W/m2 CLR
10:37 12.3 °C 8.3 °C 1009.4 hPa West 18.5 km/h 18.5 km/h 77 % 0.0 mm 274.0 W/m2 CLR
10:42 12.3 °C 8.4 °C 1009.4 hPa WNW 27.4 km/h 27.4 km/h 77 % 0.0 mm 288.0 W/m2 CLR
10:47 12.4 °C 8.5 °C 1009.4 hPa NW 22.2 km/h 22.2 km/h 77 % 0.0 mm 292.0 W/m2 CLR
10:52 12.5 °C 8.4 °C 1009.4 hPa WNW 25.7 km/h 25.7 km/h 76 % 0.0 mm 281.0 W/m2 CLR
10:57 12.4 °C 8.5 °C 1009.4 hPa West 18.5 km/h 18.5 km/h 77 % 0.0 mm 260.0 W/m2 CLR
11:02 12.6 °C 8.6 °C 1009.4 hPa WNW 20.4 km/h 20.4 km/h 77 % 0.0 mm 255.0 W/m2 CLR
11:07 12.6 °C 8.4 °C 1009.4 hPa WNW 25.9 km/h 25.9 km/h 76 % 0.0 mm 294.0 W/m2 CLR
11:12 12.6 °C 8.5 °C 1009.4 hPa NW 22.5 km/h 22.5 km/h 76 % 0.0 mm 329.0 W/m2 CLR
11:17 12.8 °C 8.8 °C 1009.4 hPa WNW 17.7 km/h 17.7 km/h 77 % 0.0 mm 255.0 W/m2 CLR
11:22 12.8 °C 8.7 °C 1009.4 hPa WNW 20.4 km/h 20.4 km/h 76 % 0.0 mm 272.0 W/m2 CLR
11:27 12.8 °C 8.7 °C 1009.4 hPa WNW 29.6 km/h 29.6 km/h 76 % 0.0 mm 290.0 W/m2 CLR
11:32 12.9 °C 8.6 °C 1009.4 hPa NNW 22.2 km/h 22.2 km/h 75 % 0.0 mm 295.0 W/m2 CLR
11:37 12.9 °C 8.8 °C 1009.4 hPa WNW 16.1 km/h 16.1 km/h 76 % 0.0 mm 278.0 W/m2 CLR
11:42 12.9 °C 8.4 °C 1009.7 hPa NW 24.1 km/h 24.1 km/h 74 % 0.0 mm 281.0 W/m2 CLR
11:52 13.0 °C 8.9 °C 1009.4 hPa WNW 18.5 km/h 18.5 km/h 76 % 0.0 mm 367.0 W/m2 CLR
11:57 13.0 °C 8.7 °C 1009.4 hPa WNW 24.1 km/h 24.1 km/h 75 % 0.0 mm 374.0 W/m2 CLR
12:02 13.1 °C 8.8 °C 1009.4 hPa NNW 18.5 km/h 18.5 km/h 75 % 0.0 mm 448.0 W/m2 CLR
12:07 13.2 °C 8.9 °C 1009.4 hPa NW 27.8 km/h 27.8 km/h 75 % 0.0 mm 485.0 W/m2 CLR
12:08 13.2 °C 8.9 °C 1009.4 hPa NW 27.8 km/h 27.8 km/h 75 % 0.0 mm 485.0 W/m2 CLR
12:13 13.2 °C 8.7 °C 1009.4 hPa NW 18.5 km/h 18.5 km/h 74 % 0.0 mm 687.0 W/m2 CLR
12:18 13.4 °C 8.9 °C 1009.4 hPa WNW 18.5 km/h 18.5 km/h 74 % 0.0 mm 489.0 W/m2 CLR
12:23 13.7 °C 8.7 °C 1009.4 hPa NW 31.5 km/h 31.5 km/h 72 % 0.0 mm 668.0 W/m2 CLR
12:38 13.7 °C 8.6 °C 1009.4 hPa NW 25.9 km/h 25.9 km/h 71 % 0.0 mm 638.0 W/m2 CLR
12:43 13.8 °C 8.4 °C 1009.4 hPa NW 22.2 km/h 22.2 km/h 70 % 0.0 mm 703.0 W/m2 CLR
12:48 13.8 °C 8.2 °C 1009.4 hPa WNW 25.9 km/h 25.9 km/h 69 % 0.0 mm 621.0 W/m2 CLR
12:53 13.8 °C 8.2 °C 1009.4 hPa WNW 24.1 km/h 24.1 km/h 69 % 0.0 mm 631.0 W/m2 CLR
12:58 13.9 °C 8.5 °C 1009.4 hPa WNW 16.7 km/h 16.7 km/h 70 % 0.0 mm 657.0 W/m2 CLR
13:03 14.1 °C 8.2 °C 1009.4 hPa NW 20.4 km/h 20.4 km/h 68 % 0.0 mm 715.0 W/m2 CLR
13:08 13.9 °C 8.1 °C 1009.7 hPa WNW 19.3 km/h 19.3 km/h 68 % 0.0 mm 830.0 W/m2 CLR
13:13 14.2 °C 8.4 °C 1009.4 hPa NW 27.8 km/h 27.8 km/h 68 % 0.0 mm 875.0 W/m2 CLR
13:18 14.3 °C 8.2 °C 1009.4 hPa NNW 22.2 km/h 22.2 km/h 67 % 0.0 mm 533.0 W/m2 CLR
13:23 14.1 °C 7.6 °C 1009.4 hPa NNW 25.9 km/h 25.9 km/h 65 % 0.0 mm 415.0 W/m2 CLR
13:25 13.9 °C 7.7 °C 1009.4 hPa WNW 25.9 km/h 25.9 km/h 66 % 0.0 mm 387.0 W/m2 CLR
13:30 13.7 °C 7.9 °C 1009.4 hPa West 18.5 km/h 18.5 km/h 68 % 0.0 mm 357.0 W/m2 CLR
13:35 13.8 °C 8.0 °C 1009.4 hPa NNW 24.1 km/h 24.1 km/h 68 % 0.0 mm 424.0 W/m2 CLR
13:38 13.9 °C 7.9 °C 1009.4 hPa NNW 18.5 km/h 18.5 km/h 67 % 0.0 mm 652.0 W/m2 CLR
13:43 14.1 °C 7.8 °C 1009.4 hPa NW 20.4 km/h 20.4 km/h 66 % 0.0 mm 448.0 W/m2 CLR
13:48 14.2 °C 8.2 °C 1009.4 hPa WNW 22.2 km/h 22.2 km/h 67 % 0.0 mm 647.0 W/m2 CLR
13:53 14.4 °C 7.9 °C 1009.4 hPa WNW 27.8 km/h 27.8 km/h 65 % 0.0 mm 1027.0 W/m2 CLR
13:54 14.4 °C 7.9 °C 1009.4 hPa WNW 24.1 km/h 24.1 km/h 65 % 0.0 mm 1027.0 W/m2 CLR
13:59 14.7 °C 8.7 °C 1009.4 hPa North 20.9 km/h 20.9 km/h 67 % 0.0 mm 1067.0 W/m2 CLR
14:04 14.6 °C 8.1 °C 1009.4 hPa WNW 22.2 km/h 22.2 km/h 65 % 0.0 mm 290.0 W/m2 CLR
14:09 14.7 °C 8.2 °C 1009.4 hPa NW 22.2 km/h 22.2 km/h 65 % 0.0 mm 993.0 W/m2 CLR
14:14 14.9 °C 8.2 °C 1009.4 hPa NW 18.5 km/h 18.5 km/h 64 % 0.0 mm 1116.0 W/m2 CLR
14:19 14.7 °C 7.9 °C 1009.4 hPa NW 29.6 km/h 29.6 km/h 64 % 0.0 mm 345.0 W/m2 CLR
14:24 14.4 °C 8.1 °C 1009.4 hPa WNW 25.9 km/h 25.9 km/h 66 % 0.0 mm 466.0 W/m2 CLR
14:29 14.2 °C 7.7 °C 1009.4 hPa WNW 22.2 km/h 22.2 km/h 65 % 0.0 mm 394.0 W/m2 CLR
14:34 14.2 °C 7.7 °C 1009.4 hPa NNW 22.2 km/h 22.2 km/h 65 % 0.0 mm 422.0 W/m2 CLR
14:39 14.2 °C 7.9 °C 1009.4 hPa WNW 22.2 km/h 22.2 km/h 66 % 0.0 mm 371.0 W/m2 CLR
14:44 14.1 °C 7.6 °C 1009.4 hPa WNW 22.2 km/h 22.2 km/h 65 % 0.0 mm 299.0 W/m2 CLR
14:49 14.2 °C 7.9 °C 1009.4 hPa NNW 14.8 km/h 14.8 km/h 66 % 0.0 mm 316.0 W/m2 CLR
14:54 14.3 °C 8.0 °C 1009.4 hPa NW 25.9 km/h 25.9 km/h 66 % 0.0 mm 408.0 W/m2 CLR
14:59 14.3 °C 7.8 °C 1009.4 hPa NW 16.7 km/h 16.7 km/h 65 % 0.0 mm 345.0 W/m2 CLR
15:04 14.2 °C 7.7 °C 1009.4 hPa WNW 20.4 km/h 20.4 km/h 65 % 0.0 mm 283.0 W/m2 CLR
15:09 14.2 °C 7.9 °C 1009.4 hPa NW 20.4 km/h 20.4 km/h 66 % 0.0 mm 278.0 W/m2 CLR
15:14 14.1 °C 7.4 °C 1009.7 hPa NNW 22.2 km/h 22.2 km/h 64 % 0.0 mm 213.0 W/m2 CLR
15:19 13.9 °C 7.2 °C 1009.4 hPa NW 18.5 km/h 18.5 km/h 64 % 0.0 mm 251.0 W/m2 CLR
15:24 13.8 °C 6.9 °C 1009.4 hPa NNW 22.2 km/h 22.2 km/h 63 % 0.0 mm 227.0 W/m2 CLR
15:29 13.8 °C 7.3 °C 1009.7 hPa NW 20.4 km/h 20.4 km/h 65 % 0.0 mm 207.0 W/m2 CLR
15:31 13.7 °C 7.1 °C 1009.7 hPa NW 18.5 km/h 18.5 km/h 64 % 0.0 mm 223.0 W/m2 CLR
15:36 13.7 °C 7.3 °C 1009.7 hPa WNW 18.5 km/h 18.5 km/h 65 % 0.0 mm 230.0 W/m2 CLR
15:41 13.7 °C 7.5 °C 1009.4 hPa NNW 19.3 km/h 19.3 km/h 66 % 0.0 mm 306.0 W/m2 CLR
15:46 13.8 °C 7.3 °C 1009.7 hPa NW 16.7 km/h 16.7 km/h 65 % 0.0 mm 214.0 W/m2 CLR
15:51 13.7 °C 6.8 °C 1009.7 hPa NNW 18.5 km/h 18.5 km/h 63 % 0.0 mm 181.0 W/m2 CLR
15:56 13.6 °C 6.7 °C 1009.7 hPa NNW 18.5 km/h 18.5 km/h 63 % 0.0 mm 185.0 W/m2 CLR
16:01 13.4 °C 6.8 °C 1009.7 hPa NW 16.7 km/h 16.7 km/h 64 % 0.0 mm 171.0 W/m2 CLR
16:06 13.4 °C 6.8 °C 1009.7 hPa NW 22.2 km/h 22.2 km/h 64 % 0.0 mm 162.0 W/m2 CLR
16:11 13.3 °C 6.9 °C 1009.7 hPa WNW 13.0 km/h 13.0 km/h 65 % 0.0 mm 139.0 W/m2 CLR
16:16 13.3 °C 6.7 °C 1009.7 hPa WNW 18.5 km/h 18.5 km/h 64 % 0.0 mm 113.0 W/m2 CLR
16:21 13.2 °C 6.3 °C 1009.7 hPa NW 14.5 km/h 14.5 km/h 63 % 0.0 mm 113.0 W/m2 CLR
16:26 13.2 °C 6.3 °C 1009.7 hPa NW 17.7 km/h 17.7 km/h 63 % 0.0 mm 81.0 W/m2 CLR
16:31 13.2 °C 6.3 °C 1009.7 hPa WNW 14.8 km/h 14.8 km/h 63 % 0.0 mm 84.0 W/m2 CLR
16:36 13.2 °C 6.6 °C 1009.7 hPa WNW 14.8 km/h 14.8 km/h 64 % 0.0 mm 60.0 W/m2 FEW
16:41 13.2 °C 6.6 °C 1009.7 hPa WNW 16.7 km/h 16.7 km/h 64 % 0.0 mm 63.0 W/m2 SCT
16:46 13.3 °C 6.6 °C 1009.7 hPa NW 16.7 km/h 16.7 km/h 64 % 0.0 mm 77.0 W/m2 SCT
16:51 13.3 °C 6.4 °C 1009.7 hPa NW 16.7 km/h 16.7 km/h 63 % 0.0 mm 74.0 W/m2 FEW
16:56 13.3 °C 6.4 °C 1009.7 hPa NW 13.0 km/h 13.0 km/h 63 % 0.0 mm 56.0 W/m2 FEW
17:01 13.3 °C 6.2 °C 1009.7 hPa NW 24.1 km/h 24.1 km/h 62 % 0.0 mm 60.0 W/m2 SCT
17:02 13.2 °C 5.8 °C 1009.7 hPa NW 25.9 km/h 25.9 km/h 61 % 0.0 mm 56.0 W/m2 SCT
17:07 13.1 °C 5.8 °C 1009.7 hPa NW 20.9 km/h 20.9 km/h 61 % 0.0 mm 49.0 W/m2 SCT
17:12 13.1 °C 5.7 °C 1009.7 hPa NW 18.5 km/h 18.5 km/h 61 % 0.0 mm 42.0 W/m2 SCT
17:17 13.1 °C 5.7 °C 1009.7 hPa NNW 18.5 km/h 18.5 km/h 61 % 0.0 mm 42.0 W/m2 BKN
17:22 13.1 °C 5.7 °C 1009.7 hPa NW 18.5 km/h 18.5 km/h 61 % 0.0 mm 49.0 W/m2 SCT
17:27 13.1 °C 5.4 °C 1009.7 hPa NW 18.5 km/h 18.5 km/h 60 % 0.0 mm 72.0 W/m2 FEW
17:32 13.1 °C 5.7 °C 1009.7 hPa NW 19.3 km/h 19.3 km/h 61 % 0.0 mm 77.0 W/m2 SCT
17:37 13.1 °C 5.5 °C 1009.7 hPa WNW 18.5 km/h 18.5 km/h 60 % 0.0 mm 105.0 W/m2 FEW
17:42 13.1 °C 5.7 °C 1009.7 hPa NW 16.7 km/h 16.7 km/h 61 % 0.0 mm 67.0 W/m2 CLR
17:47 13.0 °C 5.7 °C 1009.7 hPa NW 14.8 km/h 14.8 km/h 61 % 0.0 mm 76.0 W/m2 FEW
17:52 13.0 °C 5.7 °C 1009.7 hPa NW 5.6 km/h 8.4 km/h 61 % 0.0 mm 53.0 W/m2 FEW
17:57 12.9 °C 5.3 °C 1010.0 hPa NW 18.5 km/h 18.5 km/h 60 % 0.0 mm 44.0 W/m2 SCT
18:02 12.9 °C 5.1 °C 1010.0 hPa WNW 20.4 km/h 20.4 km/h 59 % 0.0 mm 54.0 W/m2 SCT
18:08 12.9 °C 5.1 °C 1010.0 hPa NW 16.7 km/h 16.7 km/h 59 % 0.0 mm 40.0 W/m2 SCT
18:13 12.8 °C 5.0 °C 1010.0 hPa NNW 17.7 km/h 17.7 km/h 59 % 0.0 mm 32.0 W/m2 SCT
18:18 12.8 °C 4.7 °C 1010.0 hPa NW 18.5 km/h 18.5 km/h 58 % 0.0 mm 44.0 W/m2 BKN
18:23 12.7 °C 4.9 °C 1010.0 hPa WNW 18.5 km/h 18.5 km/h 59 % 0.0 mm 37.0 W/m2 BKN
18:33 12.6 °C 4.3 °C 1010.0 hPa NW 24.1 km/h 24.1 km/h 57 % 0.0 mm 25.0 W/m2 BKN
18:38 12.4 °C 4.1 °C 1010.4 hPa WNW 22.2 km/h 22.2 km/h 57 % 0.0 mm 25.0 W/m2 BKN
18:43 12.3 °C 4.1 °C 1010.4 hPa WNW 20.9 km/h 20.9 km/h 57 % 0.0 mm 33.0 W/m2 BKN
18:48 12.3 °C 4.1 °C 1010.4 hPa NW 22.2 km/h 22.2 km/h 57 % 0.0 mm 30.0 W/m2 BKN
18:53 12.3 °C 4.0 °C 1010.4 hPa NW 22.2 km/h 22.2 km/h 57 % 0.0 mm 26.0 W/m2 BKN
18:58 12.3 °C 4.0 °C 1010.4 hPa WNW 14.8 km/h 14.8 km/h 57 % 0.0 mm 26.0 W/m2 BKN
19:03 12.2 °C 3.9 °C 1010.4 hPa NW 18.5 km/h 18.5 km/h 57 % 0.0 mm 26.0 W/m2 BKN
19:08 12.2 °C 3.9 °C 1010.4 hPa West 18.5 km/h 18.5 km/h 57 % 0.0 mm 21.0 W/m2 BKN
19:13 12.2 °C 3.7 °C 1010.4 hPa West 22.2 km/h 22.2 km/h 56 % 0.0 mm 28.0 W/m2 BKN
19:18 12.2 °C 3.7 °C 1010.4 hPa WNW 20.4 km/h 20.4 km/h 56 % 0.0 mm 19.0 W/m2 BKN
19:23 12.1 °C 3.6 °C 1010.7 hPa WNW 16.7 km/h 16.7 km/h 56 % 0.0 mm 14.0 W/m2 BKN
19:28 12.1 °C 3.8 °C 1010.7 hPa WNW 16.7 km/h 16.7 km/h 57 % 0.0 mm 18.0 W/m2 BKN
19:33 11.8 °C 4.3 °C 1010.7 hPa West 14.8 km/h 14.8 km/h 60 % 0.0 mm 16.0 W/m2 BKN
19:38 11.6 °C 4.3 °C 1010.7 hPa WNW 16.7 km/h 16.7 km/h 61 % 0.0 mm 19.0 W/m2 BKN
19:43 11.5 °C 4.4 °C 1010.7 hPa West 13.0 km/h 13.0 km/h 62 % 0.0 mm 12.0 W/m2 BKN
19:48 11.4 °C 4.2 °C 1011.1 hPa WNW 18.5 km/h 18.5 km/h 61 % 0.0 mm 11.0 W/m2 BKN
19:53 11.4 °C 4.1 °C 1011.1 hPa WNW 19.3 km/h 19.3 km/h 61 % 0.0 mm 9.0 W/m2 BKN
19:58 11.3 °C 4.3 °C 1011.1 hPa WNW 13.0 km/h 13.0 km/h 62 % 0.0 mm 9.0 W/m2 BKN
20:03 11.1 °C 4.3 °C 1011.1 hPa WNW 3.7 km/h 3.7 km/h 63 % 0.0 mm 11.0 W/m2 BKN
20:08 10.9 °C 4.3 °C 1011.1 hPa WNW 14.8 km/h 14.8 km/h 64 % 0.3 mm 9.0 W/m2 RA
20:13 10.8 °C 4.3 °C 1011.1 hPa WNW 13.0 km/h 13.0 km/h 64 % 0.3 mm 7.0 W/m2 BKN
20:18 10.8 °C 4.4 °C 1011.1 hPa West 16.7 km/h 16.7 km/h 65 % 0.3 mm 9.0 W/m2 BKN
20:23 10.8 °C 4.3 °C 1011.4 hPa WNW 13.0 km/h 13.0 km/h 64 % 0.3 mm 7.0 W/m2 BKN
20:28 10.8 °C 3.8 °C 1011.4 hPa West 16.7 km/h 16.7 km/h 62 % 0.3 mm 0.0 W/m2 OVC
20:33 10.9 °C 3.5 °C 1011.4 hPa WNW 18.5 km/h 18.5 km/h 60 % 0.3 mm 0.0 W/m2 OVC
20:38 11.1 °C 3.6 °C 1011.4 hPa WNW 14.8 km/h 14.8 km/h 60 % 0.3 mm 0.0 W/m2 OVC
20:43 11.1 °C 3.1 °C 1011.4 hPa WNW 22.2 km/h 22.2 km/h 58 % 0.3 mm 0.0 W/m2 OVC
20:48 11.0 °C 3.5 °C 1011.4 hPa NW 16.7 km/h 16.7 km/h 60 % 0.3 mm 0.0 W/m2 OVC
20:53 10.9 °C 3.7 °C 1011.4 hPa Calm     61 % 0.3 mm 0.0 W/m2 OVC
20:58 10.9 °C 3.4 °C 1011.4 hPa WNW 13.0 km/h 13.0 km/h 60 % 0.3 mm 0.0 W/m2 OVC
21:03 10.9 °C 3.0 °C 1011.7 hPa NW 19.3 km/h 19.3 km/h 58 % 0.3 mm 0.0 W/m2 CLR
21:09 11.0 °C 2.8 °C 1011.7 hPa WNW 18.5 km/h 18.5 km/h 57 % 0.0 mm 0.0 W/m2 CLR
21:14 11.0 °C 2.6 °C 1011.7 hPa West 16.7 km/h 16.7 km/h 56 % 0.0 mm 0.0 W/m2 CLR
21:19 11.0 °C 2.8 °C 1012.1 hPa WNW 14.8 km/h 14.8 km/h 57 % 0.0 mm 0.0 W/m2 CLR
21:24 10.9 °C 2.7 °C 1012.1 hPa West 24.1 km/h 24.1 km/h 57 % 0.0 mm 0.0 W/m2 CLR
21:29 10.9 °C 2.5 °C 1012.1 hPa WNW 24.1 km/h 24.1 km/h 56 % 0.0 mm 0.0 W/m2 CLR
21:34 10.9 °C 2.4 °C 1012.4 hPa WNW 19.3 km/h 19.3 km/h 56 % 0.0 mm 0.0 W/m2 CLR
21:39 10.9 °C 2.4 °C 1012.4 hPa WNW 22.2 km/h 22.2 km/h 56 % 0.0 mm 0.0 W/m2 CLR
21:44 10.8 °C 2.2 °C 1012.4 hPa WNW 16.7 km/h 16.7 km/h 55 % 0.0 mm 0.0 W/m2 CLR
21:49 10.8 °C 2.2 °C 1012.8 hPa West 18.5 km/h 18.5 km/h 55 % 0.0 mm 0.0 W/m2 CLR
21:54 10.8 °C 2.2 °C 1012.8 hPa West 18.5 km/h 18.5 km/h 55 % 0.0 mm 0.0 W/m2 CLR
21:59 10.8 °C 2.1 °C 1012.8 hPa West 18.5 km/h 18.5 km/h 55 % 0.0 mm 0.0 W/m2 CLR
22:04 10.7 °C 2.1 °C 1012.8 hPa WNW 24.1 km/h 24.1 km/h 55 % 0.0 mm 0.0 W/m2 CLR
22:09 10.7 °C 2.0 °C 1012.8 hPa WNW 22.2 km/h 22.2 km/h 55 % 0.0 mm 0.0 W/m2 CLR
22:14 10.6 °C 2.2 °C 1012.8 hPa WNW 31.5 km/h 31.5 km/h 56 % 0.0 mm 0.0 W/m2 CLR
22:19 10.6 °C 2.1 °C 1013.1 hPa NNW 18.5 km/h 18.5 km/h 56 % 0.0 mm 0.0 W/m2 CLR
22:24 10.5 °C 2.1 °C 1013.1 hPa West 14.8 km/h 14.8 km/h 56 % 0.0 mm 0.0 W/m2 CLR
22:29 10.5 °C 2.3 °C 1013.1 hPa WNW 16.7 km/h 16.7 km/h 57 % 0.0 mm 0.0 W/m2 CLR
22:34 10.4 °C 2.0 °C 1013.1 hPa WNW 20.4 km/h 20.4 km/h 56 % 0.0 mm 0.0 W/m2 CLR
22:39 10.4 °C 2.0 °C 1013.4 hPa WNW 27.8 km/h 27.8 km/h 56 % 0.0 mm 0.0 W/m2 CLR
22:41 10.3 °C 1.9 °C 1013.4 hPa WNW 18.5 km/h 18.5 km/h 56 % 0.0 mm 0.0 W/m2 CLR
22:46 10.3 °C 1.9 °C 1013.4 hPa WNW 25.9 km/h 25.9 km/h 56 % 0.0 mm 0.0 W/m2 CLR
22:51 10.2 °C 1.6 °C 1013.4 hPa WNW 22.2 km/h 22.2 km/h 55 % 0.0 mm 0.0 W/m2 CLR
22:56 10.2 °C 1.5 °C 1013.4 hPa NW 29.6 km/h 29.6 km/h 55 % 0.0 mm 0.0 W/m2 CLR
22:58 10.1 °C 1.4 °C 1013.4 hPa WNW 27.8 km/h 27.8 km/h 55 % 0.0 mm 0.0 W/m2 CLR
23:08 9.9 °C 1.6 °C 1013.8 hPa WNW 24.1 km/h 24.1 km/h 56 % 0.0 mm 0.0 W/m2 CLR
23:13 9.8 °C 0.9 °C 1013.8 hPa WNW 22.2 km/h 22.2 km/h 54 % 0.0 mm 0.0 W/m2 CLR
23:18 9.8 °C 0.9 °C 1013.8 hPa WNW 27.8 km/h 27.8 km/h 54 % 0.0 mm 0.0 W/m2 CLR
23:23 9.7 °C 0.8 °C 1013.8 hPa WNW 24.1 km/h 24.1 km/h 54 % 0.0 mm 0.0 W/m2 CLR
23:28 9.7 °C 0.8 °C 1013.8 hPa WNW 24.1 km/h 24.1 km/h 54 % 0.0 mm 0.0 W/m2 CLR
23:33 9.6 °C 0.7 °C 1013.8 hPa NW 20.4 km/h 20.4 km/h 54 % 0.0 mm 0.0 W/m2 CLR
23:38 9.6 °C 0.7 °C 1013.8 hPa WNW 20.4 km/h 20.4 km/h 54 % 0.0 mm 0.0 W/m2 CLR
23:43 9.5 °C 0.7 °C 1014.1 hPa WNW 22.2 km/h 22.2 km/h 54 % 0.0 mm 0.0 W/m2 CLR
23:48 9.4 °C 0.6 °C 1013.8 hPa West 24.1 km/h 24.1 km/h 54 % 0.0 mm 0.0 W/m2 CLR
23:53 9.4 °C 0.3 °C 1013.8 hPa West 31.5 km/h 31.5 km/h 53 % 0.0 mm 0.0 W/m2 CLR
23:58 9.4 °C 0.3 °C 1014.1 hPa West 27.8 km/h 27.8 km/h 53 % 0.0 mm 0.0 W/m2 CLR
Lo Temps de Massalio
Compliments of Weather Underground - 1.25 mb